KUIL/UIL METAR and TAF weather

Enter ICAO airport designator
Station Type Date Time Source
KUIL METAR 2018/12/11 18:31 UTC NOAA

KUIL 111831Z AUTO 21011G22KT 2SM -RA BR OVC004 11/11 A2967 RMK AO2 P0011 T01110111


Station Type Date Time Source
KUIL Decoded METAR 2018/12/11 18:31 UTC NOAA

QUILLAYUTE STATE AIRPORT, WA, United States (KUIL) 47-56N 124-34W 54M
Dec 11, 2018 - 01:31 PM EST / 2018.12.11 1831 UTC
Wind: from the SSW (210 degrees) at 13 MPH (11 KT) gusting to 25 MPH (22 KT):0
Visibility: 2 mile(s):0
Sky conditions: overcast
Weather: light rain; mist
Precipitation last hour: 0.11 inches
Temperature: 52.0 F (11.1 C)
Dew Point: 52.0 F (11.1 C)
Relative Humidity: 100%
Pressure (altimeter): 29.67 in. Hg (1004 hPa)
ob: KUIL 111831Z AUTO 21011G22KT 2SM -RA BR OVC004 11/11 A2967 RMK AO2 P0011 T01110111
cycle: 18

Station Type Date Time Source
KUIL TAF UTC NOAA

Error!


Example: see airport list